sensor_id;sensor_type;location;lat;lon;timestamp;P1;durP1;ratioP1;P2;durP2;ratioP2
56271;SDS011;42177;48.914;18.160;2023-10-08T00:03:44;8.8;;;3.2;;
56271;SDS011;42177;48.914;18.160;2023-10-08T00:08:44;8.8;;;3.2;;
56271;SDS011;42177;48.914;18.160;2023-10-08T00:13:44;6.5;;;3.8;;
56271;SDS011;42177;48.914;18.160;2023-10-08T00:18:44;6.5;;;3.8;;
56271;SDS011;42177;48.914;18.160;2023-10-08T00:23:44;5;;;3.3;;
56271;SDS011;42177;48.914;18.160;2023-10-08T00:28:44;5;;;3.3;;
56271;SDS011;42177;48.914;18.160;2023-10-08T00:33:44;8.3;;;3.4;;
56271;SDS011;42177;48.914;18.160;2023-10-08T00:38:44;8.3;;;3.4;;
56271;SDS011;42177;48.914;18.160;2023-10-08T00:43:44;8.5;;;3.5;;
56271;SDS011;42177;48.914;18.160;2023-10-08T00:48:44;8.5;;;3.5;;
56271;SDS011;42177;48.914;18.160;2023-10-08T00:53:44;10.5;;;3.4;;
56271;SDS011;42177;48.914;18.160;2023-10-08T00:58:44;10.5;;;3.4;;
56271;SDS011;42177;48.914;18.160;2023-10-08T01:03:44;6.4;;;3.4;;
56271;SDS011;42177;48.914;18.160;2023-10-08T01:08:44;6.4;;;3.4;;
56271;SDS011;42177;48.914;18.160;2023-10-08T01:13:44;8.7;;;3.8;;
56271;SDS011;42177;48.914;18.160;2023-10-08T01:18:44;8.7;;;3.8;;
56271;SDS011;42177;48.914;18.160;2023-10-08T01:23:44;5.3;;;3;;
56271;SDS011;42177;48.914;18.160;2023-10-08T01:28:44;5.3;;;3;;
56271;SDS011;42177;48.914;18.160;2023-10-08T01:33:44;7.3;;;3.5;;
56271;SDS011;42177;48.914;18.160;2023-10-08T01:38:44;7.3;;;3.5;;
56271;SDS011;42177;48.914;18.160;2023-10-08T01:43:44;6.4;;;3.4;;
56271;SDS011;42177;48.914;18.160;2023-10-08T01:48:44;6.4;;;3.4;;
56271;SDS011;42177;48.914;18.160;2023-10-08T01:53:44;7.5;;;3.9;;
56271;SDS011;42177;48.914;18.160;2023-10-08T01:58:44;7.5;;;3.9;;
56271;SDS011;42177;48.914;18.160;2023-10-08T02:03:44;7;;;3.5;;
56271;SDS011;42177;48.914;18.160;2023-10-08T02:08:44;7;;;3.5;;
56271;SDS011;42177;48.914;18.160;2023-10-08T02:13:44;7.1;;;3.5;;
56271;SDS011;42177;48.914;18.160;2023-10-08T02:18:44;7.1;;;3.5;;
56271;SDS011;42177;48.914;18.160;2023-10-08T02:23:44;7.8;;;3.3;;
56271;SDS011;42177;48.914;18.160;2023-10-08T02:28:44;7.8;;;3.3;;
56271;SDS011;42177;48.914;18.160;2023-10-08T02:33:44;6.5;;;3.2;;
56271;SDS011;42177;48.914;18.160;2023-10-08T02:38:44;6.5;;;3.2;;
56271;SDS011;42177;48.914;18.160;2023-10-08T02:43:44;7.8;;;3.2;;
56271;SDS011;42177;48.914;18.160;2023-10-08T02:48:44;7.8;;;3.2;;
56271;SDS011;42177;48.914;18.160;2023-10-08T02:53:44;9.1;;;3.7;;
56271;SDS011;42177;48.914;18.160;2023-10-08T02:58:44;9.1;;;3.7;;
56271;SDS011;42177;48.914;18.160;2023-10-08T03:03:44;9.6;;;3.6;;
56271;SDS011;42177;48.914;18.160;2023-10-08T03:08:44;9.6;;;3.6;;
56271;SDS011;42177;48.914;18.160;2023-10-08T03:13:44;8;;;3.6;;
56271;SDS011;42177;48.914;18.160;2023-10-08T03:18:44;8;;;3.6;;
56271;SDS011;42177;48.914;18.160;2023-10-08T03:23:44;6.3;;;3.2;;
56271;SDS011;42177;48.914;18.160;2023-10-08T03:28:44;6.3;;;3.2;;
56271;SDS011;42177;48.914;18.160;2023-10-08T03:33:44;6.7;;;3.6;;
56271;SDS011;42177;48.914;18.160;2023-10-08T03:38:44;6.7;;;3.6;;
56271;SDS011;42177;48.914;18.160;2023-10-08T03:43:44;6.3;;;3.2;;
56271;SDS011;42177;48.914;18.160;2023-10-08T03:48:44;6.3;;;3.2;;
56271;SDS011;42177;48.914;18.160;2023-10-08T03:53:44;6.6;;;3.3;;
56271;SDS011;42177;48.914;18.160;2023-10-08T03:58:44;6.6;;;3.3;;
56271;SDS011;42177;48.914;18.160;2023-10-08T04:03:44;6.8;;;3.7;;
56271;SDS011;42177;48.914;18.160;2023-10-08T04:08:44;6.8;;;3.7;;
56271;SDS011;42177;48.914;18.160;2023-10-08T04:13:44;7.5;;;3.7;;
56271;SDS011;42177;48.914;18.160;2023-10-08T04:18:44;7.5;;;3.7;;
56271;SDS011;42177;48.914;18.160;2023-10-08T04:23:44;7.9;;;3.8;;
56271;SDS011;42177;48.914;18.160;2023-10-08T04:28:44;7.9;;;3.8;;
56271;SDS011;42177;48.914;18.160;2023-10-08T04:33:44;10.2;;;4;;
56271;SDS011;42177;48.914;18.160;2023-10-08T04:38:44;10.2;;;4;;
56271;SDS011;42177;48.914;18.160;2023-10-08T04:43:44;8.7;;;3.8;;
56271;SDS011;42177;48.914;18.160;2023-10-08T04:48:44;8.7;;;3.8;;
56271;SDS011;42177;48.914;18.160;2023-10-08T04:53:44;11.3;;;3.8;;
56271;SDS011;42177;48.914;18.160;2023-10-08T04:58:44;11.3;;;3.8;;
56271;SDS011;42177;48.914;18.160;2023-10-08T05:03:44;7.9;;;3.8;;
56271;SDS011;42177;48.914;18.160;2023-10-08T05:08:44;7.9;;;3.8;;
56271;SDS011;42177;48.914;18.160;2023-10-08T05:13:44;9.1;;;3.6;;
56271;SDS011;42177;48.914;18.160;2023-10-08T05:18:44;9.1;;;3.6;;
56271;SDS011;42177;48.914;18.160;2023-10-08T05:23:44;7.3;;;3.3;;
56271;SDS011;42177;48.914;18.160;2023-10-08T05:28:44;7.3;;;3.3;;
56271;SDS011;42177;48.914;18.160;2023-10-08T05:33:44;10;;;3.7;;
56271;SDS011;42177;48.914;18.160;2023-10-08T05:38:44;10;;;3.7;;
56271;SDS011;42177;48.914;18.160;2023-10-08T05:43:44;7.6;;;3.6;;
56271;SDS011;42177;48.914;18.160;2023-10-08T05:48:44;7.6;;;3.6;;
56271;SDS011;42177;48.914;18.160;2023-10-08T05:53:44;8;;;3.5;;
56271;SDS011;42177;48.914;18.160;2023-10-08T05:58:44;8;;;3.5;;
56271;SDS011;42177;48.914;18.160;2023-10-08T06:03:44;8.2;;;3.5;;
56271;SDS011;42177;48.914;18.160;2023-10-08T06:08:44;8.2;;;3.5;;
56271;SDS011;42177;48.914;18.160;2023-10-08T06:13:44;10.5;;;3.8;;
56271;SDS011;42177;48.914;18.160;2023-10-08T06:18:44;10.5;;;3.8;;
56271;SDS011;42177;48.914;18.160;2023-10-08T06:23:44;8.7;;;3.6;;
56271;SDS011;42177;48.914;18.160;2023-10-08T06:28:44;8.7;;;3.6;;
56271;SDS011;42177;48.914;18.160;2023-10-08T06:33:44;9.7;;;3.9;;
56271;SDS011;42177;48.914;18.160;2023-10-08T06:38:44;9.7;;;3.9;;
56271;SDS011;42177;48.914;18.160;2023-10-08T06:43:44;4.6;;;2.2;;
56271;SDS011;42177;48.914;18.160;2023-10-08T06:48:44;4.6;;;2.2;;
56271;SDS011;42177;48.914;18.160;2023-10-08T06:53:44;2;;;1.1;;
56271;SDS011;42177;48.914;18.160;2023-10-08T06:58:44;2;;;1.1;;
56271;SDS011;42177;48.914;18.160;2023-10-08T07:03:44;0.7;;;0.5;;
56271;SDS011;42177;48.914;18.160;2023-10-08T07:08:44;0.7;;;0.5;;
56271;SDS011;42177;48.914;18.160;2023-10-08T07:13:44;0.2;;;0.2;;
56271;SDS011;42177;48.914;18.160;2023-10-08T07:18:44;0.2;;;0.2;;
56271;SDS011;42177;48.914;18.160;2023-10-08T07:23:44;0.2;;;0.2;;
56271;SDS011;42177;48.914;18.160;2023-10-08T07:28:44;0.2;;;0.2;;
56271;SDS011;42177;48.914;18.160;2023-10-08T07:33:46;0.7;;;0.3;;
56271;SDS011;42177;48.914;18.160;2023-10-08T07:38:44;0.7;;;0.3;;
56271;SDS011;42177;48.914;18.160;2023-10-08T07:43:44;0.2;;;0.2;;
56271;SDS011;42177;48.914;18.160;2023-10-08T07:48:44;0.2;;;0.2;;
56271;SDS011;42177;48.914;18.160;2023-10-08T07:53:44;0.4;;;0.3;;
56271;SDS011;42177;48.914;18.160;2023-10-08T07:58:44;0.4;;;0.3;;
56271;SDS011;42177;48.914;18.160;2023-10-08T08:03:44;1.5;;;0.4;;
56271;SDS011;42177;48.914;18.160;2023-10-08T08:08:44;1.5;;;0.4;;
56271;SDS011;42177;48.914;18.160;2023-10-08T08:13:44;1.6;;;0.3;;
56271;SDS011;42177;48.914;18.160;2023-10-08T08:18:44;1.6;;;0.3;;
56271;SDS011;42177;48.914;18.160;2023-10-08T08:23:44;2.3;;;0.5;;
56271;SDS011;42177;48.914;18.160;2023-10-08T08:28:44;2.3;;;0.5;;
56271;SDS011;42177;48.914;18.160;2023-10-08T08:33:44;0.7;;;0.3;;
56271;SDS011;42177;48.914;18.160;2023-10-08T08:38:44;0.7;;;0.3;;
56271;SDS011;42177;48.914;18.160;2023-10-08T08:43:47;0.3;;;0.3;;
56271;SDS011;42177;48.914;18.160;2023-10-08T08:48:44;0.3;;;0.3;;
56271;SDS011;42177;48.914;18.160;2023-10-08T08:53:44;0.6;;;0.3;;
56271;SDS011;42177;48.914;18.160;2023-10-08T08:58:44;0.6;;;0.3;;
56271;SDS011;42177;48.914;18.160;2023-10-08T09:03:44;0.8;;;0.5;;
56271;SDS011;42177;48.914;18.160;2023-10-08T09:08:44;0.8;;;0.5;;
56271;SDS011;42177;48.914;18.160;2023-10-08T09:13:44;0.5;;;0.5;;
56271;SDS011;42177;48.914;18.160;2023-10-08T09:18:44;0.5;;;0.5;;
56271;SDS011;42177;48.914;18.160;2023-10-08T09:23:44;0.3;;;0.3;;
56271;SDS011;42177;48.914;18.160;2023-10-08T09:28:45;0.3;;;0.3;;
56271;SDS011;42177;48.914;18.160;2023-10-08T09:33:53;0.3;;;0.3;;
56271;SDS011;42177;48.914;18.160;2023-10-08T09:38:45;0.3;;;0.3;;
56271;SDS011;42177;48.914;18.160;2023-10-08T09:43:44;0.6;;;0.5;;
56271;SDS011;42177;48.914;18.160;2023-10-08T09:48:44;0.6;;;0.5;;
56271;SDS011;42177;48.914;18.160;2023-10-08T09:53:47;0.9;;;0.8;;
56271;SDS011;42177;48.914;18.160;2023-10-08T09:58:44;0.9;;;0.8;;
56271;SDS011;42177;48.914;18.160;2023-10-08T10:03:44;1.3;;;0.9;;
56271;SDS011;42177;48.914;18.160;2023-10-08T10:08:44;1.3;;;0.9;;
56271;SDS011;42177;48.914;18.160;2023-10-08T10:13:44;1.7;;;0.9;;
56271;SDS011;42177;48.914;18.160;2023-10-08T10:18:44;1.7;;;0.9;;
56271;SDS011;42177;48.914;18.160;2023-10-08T10:23:44;1.5;;;1.1;;
56271;SDS011;42177;48.914;18.160;2023-10-08T10:28:44;1.5;;;1.1;;
56271;SDS011;42177;48.914;18.160;2023-10-08T10:33:44;2.4;;;1.3;;
56271;SDS011;42177;48.914;18.160;2023-10-08T10:38:44;2.4;;;1.3;;
56271;SDS011;42177;48.914;18.160;2023-10-08T10:43:44;2.6;;;1.3;;
56271;SDS011;42177;48.914;18.160;2023-10-08T10:48:44;2.6;;;1.3;;
56271;SDS011;42177;48.914;18.160;2023-10-08T10:53:44;1.8;;;1.3;;
56271;SDS011;42177;48.914;18.160;2023-10-08T10:58:45;1.8;;;1.3;;
56271;SDS011;42177;48.914;18.160;2023-10-08T11:03:44;3.2;;;2;;
56271;SDS011;42177;48.914;18.160;2023-10-08T11:08:44;3.2;;;2;;
56271;SDS011;42177;48.914;18.160;2023-10-08T11:13:44;2.3;;;1.5;;
56271;SDS011;42177;48.914;18.160;2023-10-08T11:18:44;2.3;;;1.5;;
56271;SDS011;42177;48.914;18.160;2023-10-08T11:23:44;2.7;;;1.7;;
56271;SDS011;42177;48.914;18.160;2023-10-08T11:28:44;2.7;;;1.7;;
56271;SDS011;42177;48.914;18.160;2023-10-08T11:33:44;2.9;;;1.5;;
56271;SDS011;42177;48.914;18.160;2023-10-08T11:38:44;2.9;;;1.5;;
56271;SDS011;42177;48.914;18.160;2023-10-08T11:43:44;14;;;10.5;;
56271;SDS011;42177;48.914;18.160;2023-10-08T11:48:44;14;;;10.5;;
56271;SDS011;42177;48.914;18.160;2023-10-08T11:53:44;5.3;;;1.8;;
56271;SDS011;42177;48.914;18.160;2023-10-08T11:58:44;5.3;;;1.8;;
56271;SDS011;42177;48.914;18.160;2023-10-08T12:03:44;3;;;1.7;;
56271;SDS011;42177;48.914;18.160;2023-10-08T12:08:44;3;;;1.7;;
56271;SDS011;42177;48.914;18.160;2023-10-08T12:13:44;4.9;;;1.9;;
56271;SDS011;42177;48.914;18.160;2023-10-08T12:18:45;4.9;;;1.9;;
56271;SDS011;42177;48.914;18.160;2023-10-08T12:23:44;3.5;;;2.1;;
56271;SDS011;42177;48.914;18.160;2023-10-08T12:28:44;3.5;;;2.1;;
56271;SDS011;42177;48.914;18.160;2023-10-08T12:33:44;3.4;;;1.8;;
56271;SDS011;42177;48.914;18.160;2023-10-08T12:38:44;3.4;;;1.8;;
56271;SDS011;42177;48.914;18.160;2023-10-08T12:43:44;2.5;;;1.4;;
56271;SDS011;42177;48.914;18.160;2023-10-08T12:48:44;2.5;;;1.4;;
56271;SDS011;42177;48.914;18.160;2023-10-08T12:53:44;3.2;;;1.9;;
56271;SDS011;42177;48.914;18.160;2023-10-08T12:58:44;3.2;;;1.9;;
56271;SDS011;42177;48.914;18.160;2023-10-08T13:03:44;2.5;;;1.8;;
56271;SDS011;42177;48.914;18.160;2023-10-08T13:08:44;2.5;;;1.8;;
56271;SDS011;42177;48.914;18.160;2023-10-08T13:13:44;3.3;;;2;;
56271;SDS011;42177;48.914;18.160;2023-10-08T13:18:44;3.3;;;2;;
56271;SDS011;42177;48.914;18.160;2023-10-08T13:23:44;2.7;;;1.7;;
56271;SDS011;42177;48.914;18.160;2023-10-08T13:28:44;2.7;;;1.7;;
56271;SDS011;42177;48.914;18.160;2023-10-08T13:33:44;2.6;;;1.6;;
56271;SDS011;42177;48.914;18.160;2023-10-08T13:38:44;2.6;;;1.6;;
56271;SDS011;42177;48.914;18.160;2023-10-08T13:43:44;2.4;;;1.6;;
56271;SDS011;42177;48.914;18.160;2023-10-08T13:48:45;2.4;;;1.6;;
56271;SDS011;42177;48.914;18.160;2023-10-08T13:53:47;3.5;;;1.6;;
56271;SDS011;42177;48.914;18.160;2023-10-08T13:58:44;3.5;;;1.6;;
56271;SDS011;42177;48.914;18.160;2023-10-08T14:03:44;3.8;;;1.9;;
56271;SDS011;42177;48.914;18.160;2023-10-08T14:08:44;3.8;;;1.9;;
56271;SDS011;42177;48.914;18.160;2023-10-08T14:13:44;2.9;;;1.5;;
56271;SDS011;42177;48.914;18.160;2023-10-08T14:18:44;2.9;;;1.5;;
56271;SDS011;42177;48.914;18.160;2023-10-08T14:23:44;2.4;;;1.7;;
56271;SDS011;42177;48.914;18.160;2023-10-08T14:28:44;2.4;;;1.7;;
56271;SDS011;42177;48.914;18.160;2023-10-08T14:33:44;2.8;;;1.7;;
56271;SDS011;42177;48.914;18.160;2023-10-08T14:38:44;2.8;;;1.7;;
56271;SDS011;42177;48.914;18.160;2023-10-08T14:43:44;3.3;;;1.4;;
56271;SDS011;42177;48.914;18.160;2023-10-08T14:48:44;3.3;;;1.4;;
56271;SDS011;42177;48.914;18.160;2023-10-08T14:53:44;2.1;;;1.3;;
56271;SDS011;42177;48.914;18.160;2023-10-08T14:58:44;2.1;;;1.3;;
56271;SDS011;42177;48.914;18.160;2023-10-08T15:03:44;3.3;;;1.5;;
56271;SDS011;42177;48.914;18.160;2023-10-08T15:08:44;3.3;;;1.5;;
56271;SDS011;42177;48.914;18.160;2023-10-08T15:13:44;2.9;;;1.3;;
56271;SDS011;42177;48.914;18.160;2023-10-08T15:18:44;2.9;;;1.3;;
56271;SDS011;42177;48.914;18.160;2023-10-08T15:23:44;2.6;;;1.2;;
56271;SDS011;42177;48.914;18.160;2023-10-08T15:28:44;2.6;;;1.2;;
56271;SDS011;42177;48.914;18.160;2023-10-08T15:33:44;2.5;;;1.2;;
56271;SDS011;42177;48.914;18.160;2023-10-08T15:38:44;2.5;;;1.2;;
56271;SDS011;42177;48.914;18.160;2023-10-08T15:43:46;2.1;;;1.1;;
56271;SDS011;42177;48.914;18.160;2023-10-08T15:48:44;2.1;;;1.1;;
56271;SDS011;42177;48.914;18.160;2023-10-08T15:53:44;2.3;;;1.4;;
56271;SDS011;42177;48.914;18.160;2023-10-08T15:58:44;2.3;;;1.4;;
56271;SDS011;42177;48.914;18.160;2023-10-08T16:03:44;2.4;;;1.2;;
56271;SDS011;42177;48.914;18.160;2023-10-08T16:08:44;2.4;;;1.2;;
56271;SDS011;42177;48.914;18.160;2023-10-08T16:13:44;2.4;;;1.3;;
56271;SDS011;42177;48.914;18.160;2023-10-08T16:18:44;2.4;;;1.3;;
56271;SDS011;42177;48.914;18.160;2023-10-08T16:23:44;3;;;1.8;;
56271;SDS011;42177;48.914;18.160;2023-10-08T16:28:44;3;;;1.8;;
56271;SDS011;42177;48.914;18.160;2023-10-08T16:33:44;2.5;;;1.5;;
56271;SDS011;42177;48.914;18.160;2023-10-08T16:38:44;2.5;;;1.5;;
56271;SDS011;42177;48.914;18.160;2023-10-08T16:43:44;3;;;1.7;;
56271;SDS011;42177;48.914;18.160;2023-10-08T16:48:44;3;;;1.7;;
56271;SDS011;42177;48.914;18.160;2023-10-08T16:53:44;2.7;;;1.6;;
56271;SDS011;42177;48.914;18.160;2023-10-08T16:58:44;2.7;;;1.6;;
56271;SDS011;42177;48.914;18.160;2023-10-08T17:03:44;3.5;;;1.6;;
56271;SDS011;42177;48.914;18.160;2023-10-08T17:08:44;3.5;;;1.6;;
56271;SDS011;42177;48.914;18.160;2023-10-08T17:13:44;4.2;;;1.7;;
56271;SDS011;42177;48.914;18.160;2023-10-08T17:18:44;4.2;;;1.7;;
56271;SDS011;42177;48.914;18.160;2023-10-08T17:23:44;3.4;;;1.8;;
56271;SDS011;42177;48.914;18.160;2023-10-08T17:28:44;3.4;;;1.8;;
56271;SDS011;42177;48.914;18.160;2023-10-08T17:33:44;4.3;;;2;;
56271;SDS011;42177;48.914;18.160;2023-10-08T17:38:44;4.3;;;2;;
56271;SDS011;42177;48.914;18.160;2023-10-08T17:43:44;4.4;;;2.6;;
56271;SDS011;42177;48.914;18.160;2023-10-08T17:48:44;4.4;;;2.6;;
56271;SDS011;42177;48.914;18.160;2023-10-08T17:53:44;5;;;2.5;;
56271;SDS011;42177;48.914;18.160;2023-10-08T17:58:44;5;;;2.5;;
56271;SDS011;42177;48.914;18.160;2023-10-08T18:03:44;4.5;;;2.7;;
56271;SDS011;42177;48.914;18.160;2023-10-08T18:08:44;4.5;;;2.7;;
56271;SDS011;42177;48.914;18.160;2023-10-08T18:13:44;3.2;;;2.3;;
56271;SDS011;42177;48.914;18.160;2023-10-08T18:18:44;3.2;;;2.3;;
56271;SDS011;42177;48.914;18.160;2023-10-08T18:23:44;3.7;;;2.3;;
56271;SDS011;42177;48.914;18.160;2023-10-08T18:28:44;3.7;;;2.3;;
56271;SDS011;42177;48.914;18.160;2023-10-08T18:33:44;3.6;;;2.5;;
56271;SDS011;42177;48.914;18.160;2023-10-08T18:38:44;3.6;;;2.5;;
56271;SDS011;42177;48.914;18.160;2023-10-08T18:43:44;4.1;;;2.3;;
56271;SDS011;42177;48.914;18.160;2023-10-08T18:48:44;4.1;;;2.3;;
56271;SDS011;42177;48.914;18.160;2023-10-08T18:53:44;3.4;;;2.3;;
56271;SDS011;42177;48.914;18.160;2023-10-08T18:58:45;3.4;;;2.3;;
56271;SDS011;42177;48.914;18.160;2023-10-08T19:03:44;4.2;;;2.7;;
56271;SDS011;42177;48.914;18.160;2023-10-08T19:08:44;4.2;;;2.7;;
56271;SDS011;42177;48.914;18.160;2023-10-08T19:13:44;3;;;2.3;;
56271;SDS011;42177;48.914;18.160;2023-10-08T19:18:44;3;;;2.3;;
56271;SDS011;42177;48.914;18.160;2023-10-08T19:23:44;3.9;;;2.2;;
56271;SDS011;42177;48.914;18.160;2023-10-08T19:28:44;3.9;;;2.2;;
56271;SDS011;42177;48.914;18.160;2023-10-08T19:33:44;3.6;;;2.3;;
56271;SDS011;42177;48.914;18.160;2023-10-08T19:38:44;3.6;;;2.3;;
56271;SDS011;42177;48.914;18.160;2023-10-08T19:43:44;6.1;;;3.9;;
56271;SDS011;42177;48.914;18.160;2023-10-08T19:48:44;6.1;;;3.9;;
56271;SDS011;42177;48.914;18.160;2023-10-08T19:53:44;4.4;;;3.3;;
56271;SDS011;42177;48.914;18.160;2023-10-08T19:58:44;4.4;;;3.3;;
56271;SDS011;42177;48.914;18.160;2023-10-08T20:03:44;8.1;;;4.5;;
56271;SDS011;42177;48.914;18.160;2023-10-08T20:08:44;8.1;;;4.5;;
56271;SDS011;42177;48.914;18.160;2023-10-08T20:13:44;6.2;;;3.6;;
56271;SDS011;42177;48.914;18.160;2023-10-08T20:18:44;6.2;;;3.6;;
56271;SDS011;42177;48.914;18.160;2023-10-08T20:23:44;4.3;;;3.1;;
56271;SDS011;42177;48.914;18.160;2023-10-08T20:28:44;4.3;;;3.1;;
56271;SDS011;42177;48.914;18.160;2023-10-08T20:33:44;4.9;;;3.2;;
56271;SDS011;42177;48.914;18.160;2023-10-08T20:38:44;4.9;;;3.2;;
56271;SDS011;42177;48.914;18.160;2023-10-08T20:43:44;9;;;5.5;;
56271;SDS011;42177;48.914;18.160;2023-10-08T20:48:44;9;;;5.5;;
56271;SDS011;42177;48.914;18.160;2023-10-08T20:53:44;6.9;;;5;;
56271;SDS011;42177;48.914;18.160;2023-10-08T20:58:44;6.9;;;5;;
56271;SDS011;42177;48.914;18.160;2023-10-08T21:03:44;7.8;;;4.8;;
56271;SDS011;42177;48.914;18.160;2023-10-08T21:08:44;7.8;;;4.8;;
56271;SDS011;42177;48.914;18.160;2023-10-08T21:13:44;10.1;;;7.9;;
56271;SDS011;42177;48.914;18.160;2023-10-08T21:18:44;10.1;;;7.9;;
56271;SDS011;42177;48.914;18.160;2023-10-08T21:23:45;6.5;;;4.2;;
56271;SDS011;42177;48.914;18.160;2023-10-08T21:28:44;6.5;;;4.2;;
56271;SDS011;42177;48.914;18.160;2023-10-08T21:33:44;6;;;3.7;;
56271;SDS011;42177;48.914;18.160;2023-10-08T21:38:44;6;;;3.7;;
56271;SDS011;42177;48.914;18.160;2023-10-08T21:43:44;6.5;;;3;;
56271;SDS011;42177;48.914;18.160;2023-10-08T21:48:44;6.5;;;3;;
56271;SDS011;42177;48.914;18.160;2023-10-08T21:53:44;4.4;;;2.8;;
56271;SDS011;42177;48.914;18.160;2023-10-08T21:58:44;4.4;;;2.8;;
56271;SDS011;42177;48.914;18.160;2023-10-08T22:03:44;4.7;;;2.6;;
56271;SDS011;42177;48.914;18.160;2023-10-08T22:08:44;4.7;;;2.6;;
56271;SDS011;42177;48.914;18.160;2023-10-08T22:13:44;4;;;2.7;;
56271;SDS011;42177;48.914;18.160;2023-10-08T22:18:44;4;;;2.7;;
56271;SDS011;42177;48.914;18.160;2023-10-08T22:23:44;3.4;;;2.4;;
56271;SDS011;42177;48.914;18.160;2023-10-08T22:28:44;3.4;;;2.4;;
56271;SDS011;42177;48.914;18.160;2023-10-08T22:33:44;3.3;;;2.5;;
56271;SDS011;42177;48.914;18.160;2023-10-08T22:38:44;3.3;;;2.5;;
56271;SDS011;42177;48.914;18.160;2023-10-08T22:43:44;3.3;;;2.4;;
56271;SDS011;42177;48.914;18.160;2023-10-08T22:48:44;3.3;;;2.4;;
56271;SDS011;42177;48.914;18.160;2023-10-08T22:53:44;3.4;;;2.3;;
56271;SDS011;42177;48.914;18.160;2023-10-08T22:58:44;3.4;;;2.3;;
56271;SDS011;42177;48.914;18.160;2023-10-08T23:03:44;4;;;2.3;;
56271;SDS011;42177;48.914;18.160;2023-10-08T23:08:44;4;;;2.3;;
56271;SDS011;42177;48.914;18.160;2023-10-08T23:13:44;3.3;;;2.5;;
56271;SDS011;42177;48.914;18.160;2023-10-08T23:18:44;3.3;;;2.5;;
56271;SDS011;42177;48.914;18.160;2023-10-08T23:23:44;5.4;;;3.1;;
56271;SDS011;42177;48.914;18.160;2023-10-08T23:28:44;5.4;;;3.1;;
56271;SDS011;42177;48.914;18.160;2023-10-08T23:33:44;4.6;;;3.4;;
56271;SDS011;42177;48.914;18.160;2023-10-08T23:38:44;4.6;;;3.4;;
56271;SDS011;42177;48.914;18.160;2023-10-08T23:43:44;5.4;;;2.7;;
56271;SDS011;42177;48.914;18.160;2023-10-08T23:48:44;5.4;;;2.7;;
56271;SDS011;42177;48.914;18.160;2023-10-08T23:53:44;3.4;;;2.5;;
56271;SDS011;42177;48.914;18.160;2023-10-08T23:58:44;3.4;;;2.5;;
